Meteorological Aerodrome Report (METAR)

METAR

Data at: 1355 UTC 20 Sep 2019

METAR for:NVSC (Sola/Vanua Lava Arpt, --, NV)
Text:NVSC 201200Z AUTO 02006KT //// // NCD 26/24 Q1014
Temperature: 26.0°C ( 79°F)
Dewpoint: 24.0°C ( 75°F) [RH = 89%]
Pressure (altimeter):29.94 inches Hg (1014.0 mb)
Winds:from the NNE (20 degrees) at 7 MPH (6 knots; 3.1 m/s)
Ceiling:at least 12,000 feet AGL
Clouds:sky clear below 12,000 feet AGL

METAR

Data at: 1355 UTC 20 Sep 2019

METAR for:NVSG (Longana Arpt, --, NV)
Text:NVSG 201200Z AUTO 17005KT //// // NCD 25/22 Q1016
Temperature: 25.0°C ( 77°F)
Dewpoint: 22.0°C ( 72°F) [RH = 83%]
Pressure (altimeter):30.00 inches Hg (1016.0 mb)
Winds:from the S (170 degrees) at 6 MPH (5 knots; 2.6 m/s)
Ceiling:at least 12,000 feet AGL
Clouds:sky clear below 12,000 feet AGL

METAR

Data at: 1355 UTC 20 Sep 2019

METAR for:NVSS (Santo/Pekoa Intl, --, NV)
Text:NVSS 201200Z 12008KT 9999 SCT022 25/21 Q1015
Temperature: 25.0°C ( 77°F)
Dewpoint: 21.0°C ( 70°F) [RH = 79%]
Pressure (altimeter):29.97 inches Hg (1015.0 mb)
Winds:from the ESE (120 degrees) at 9 MPH (8 knots; 4.1 m/s)
Visibility:6 or more sm (10+ km)
Ceiling:at least 12,000 feet AGL
Clouds: scattered clouds at 2200 feet AGL

METAR

Data at: 1355 UTC 20 Sep 2019

METAR for:NVSL (Malekula/Lamap, --, NV)
Text:NVSL 201200Z AUTO 13010KT //// // NCD 24/21 Q1015
Temperature: 24.0°C ( 75°F)
Dewpoint: 21.0°C ( 70°F) [RH = 83%]
Pressure (altimeter):29.97 inches Hg (1015.0 mb)
Winds:from the SE (130 degrees) at 12 MPH (10 knots; 5.1 m/s)
Ceiling:at least 12,000 feet AGL
Clouds:sky clear below 12,000 feet AGL

METAR

Data at: 1355 UTC 20 Sep 2019

METAR for:NVSP (Norsup Arpt, --, NV)
Text:No data found

METAR

Data at: 1355 UTC 20 Sep 2019

METAR for:NVVV (Efate/Bauerfield Int, --, NV)
Text:NVVV 201200Z 04001KT 9999 FEW025 19/18 Q1017
Temperature: 19.0°C ( 66°F)
Dewpoint: 18.0°C ( 64°F) [RH = 94%]
Pressure (altimeter):30.03 inches Hg (1017.0 mb)
Winds:from the NE (40 degrees) at 1 MPH (1 knots; 0.5 m/s)
Visibility:6 or more sm (10+ km)
Ceiling:at least 12,000 feet AGL
Clouds: few clouds at 2500 feet AGL

METAR

Data at: 1355 UTC 20 Sep 2019

METAR for:NVVW (Tanna Arpt, --, NV)
Text:NVVW 201200Z AUTO 15003KT //// // NCD 17/15 Q1018
Temperature: 17.0°C ( 63°F)
Dewpoint: 15.0°C ( 59°F) [RH = 88%]
Pressure (altimeter):30.06 inches Hg (1018.0 mb)
Winds:from the SSE (150 degrees) at 3 MPH (3 knots; 1.5 m/s)
Ceiling:at least 12,000 feet AGL
Clouds:sky clear below 12,000 feet AGL

METAR

Data at: 1355 UTC 20 Sep 2019

METAR for:NVVA (Aneityum/Mystery Isl, --, NV)
Text:NVVA 201200Z AUTO 02009KT //// // NCD 22/18 Q1019
Temperature: 22.0°C ( 72°F)
Dewpoint: 18.0°C ( 64°F) [RH = 78%]
Pressure (altimeter):30.09 inches Hg (1019.0 mb)
Winds:from the NNE (20 degrees) at 10 MPH (9 knots; 4.6 m/s)
Ceiling:at least 12,000 feet AGL
Clouds:sky clear below 12,000 feet AGL

METAR

Data at: 1355 UTC 20 Sep 2019

NVVV 201200Z 04001KT 9999 FEW025 19/18 Q1017
NVSC 201200Z AUTO 02006KT //// // NCD 26/24 Q1014
NVSG 201200Z AUTO 17005KT //// // NCD 25/22 Q1016
NVSS 201200Z 12008KT 9999 SCT022 25/21 Q1015
NVSL 201200Z AUTO 13010KT //// // NCD 24/21 Q1015
No Data available for NVSP
NVVW 201200Z AUTO 15003KT //// // NCD 17/15 Q1018
NVVA 201200Z AUTO 02009KT //// // NCD 22/18 Q1019